Sankuniki — JD2465 — position and weather

sailwx.info

Track history (hours):
 
Tides and Currents Weather Stations Pressure Air Temp Water Temp Dewpoint Dewpoint Depression Visibility Wind Speed Wind Dir Waves Ship Positions

Sankuniki

Last reported at 2016-May-05 17:26 UTC. Time now 2016-May-06 22:33 UTC.
Position N 34°53' E 139°57'.

Length 71 m; draft 4 m.

Type: Cargo ship. MMSI: 431000269.

Date/timePositionNaut miles runAvg speedWind from/ knotsBaromVisibWave heightAir tempDewpointWater temp
2016-May-05 17:26N 34°53' E 139°57'1012.0
2016-May-05 16:34N 34°59' E 140°08'2411.9
2016-May-05 14:32N 35°14' E 140°31'1312.6
2016-May-05 13:28N 35°25' E 140°40'1212.5
2016-May-05 12:31N 35°35' E 140°48'1111.5
2016-May-05 11:33N 35°45' E 140°54'1212.1
2016-May-05 10:33N 35°56' E 140°48'1611.9
2016-May-05 09:14N 36°12' E 140°48'  
2016-Apr-27 07:24N 35°26' E 140°41'1412.5
2016-Apr-27 06:16N 35°15' E 140°31'3412.3
2016-Apr-27 03:33N 34°54' E 139°59'1311.6
2016-Apr-27 02:26N 34°52' E 139°43'  
Track history (hours):
 
Tides and Currents Weather Stations Pressure Air Temp Water Temp Dewpoint Dewpoint Depression Visibility Wind Speed Wind Dir Waves Ship Positions

Sankuniki

Last reported at 2016-May-05 17:26 UTC. Time now 2016-May-06 22:33 UTC.
Position N 34°53' E 139°57'.

Length 71 m; draft 4 m.

Type: Cargo ship. MMSI: 431000269.

Date/timePositionNaut miles runAvg speedWind from/ knotsBaromVisibWave heightAir tempDewpointWater temp
2016-May-05 17:26N 34°53' E 139°57'1012.0
2016-May-05 16:34N 34°59' E 140°08'2411.9
2016-May-05 14:32N 35°14' E 140°31'1312.6
2016-May-05 13:28N 35°25' E 140°40'1212.5
2016-May-05 12:31N 35°35' E 140°48'1111.5
2016-May-05 11:33N 35°45' E 140°54'1212.1
2016-May-05 10:33N 35°56' E 140°48'1611.9
2016-May-05 09:14N 36°12' E 140°48'  
2016-Apr-27 07:24N 35°26' E 140°41'1412.5
2016-Apr-27 06:16N 35°15' E 140°31'3412.3
2016-Apr-27 03:33N 34°54' E 139°59'1311.6
2016-Apr-27 02:26N 34°52' E 139°43'  

Dump ship's entire track history